Latest Weather Observations for Condobolin Airport

IDN60801

Issued at 1:03 pm EST Wednesday 25 May 2016 (issued every 30 minutes, with the page automatically refreshed every 10 minutes)

About weather observations | Map of weather stations | Latest weather observations for NSW | Other Formats
Station Details ID: 050137 Name: CONDOBOLIN AIRPORT AWS Lat: -33.07 Lon: 147.21 Height: 192.6 m
Data from the previous 72 hours. | See also: Recent months at Condobolin Airport
Date/Time
EST
Temp
°C
App
Temp
°C
Dew
Point
Rel
Hum
%
Delta-T
°C
Wind Press
QNH
hPa
Press
MSL
hPa
Rain
since 9 am
mm
Dir
 
Spd
km/h
Gust
km/h
Spd
kts
Gust
kts
25/01:00pm 16.9 13.7 6.7 51 5.1 NW 13 24 7 13 1016.6 1016.6 0.0
25/12:30pm 16.9 13.0 7.0 52 5.0 NNW 17 24 9 13 1017.1 1017.1 0.0
25/12:00pm 16.3 13.5 7.0 54 4.6 NNW 11 17 6 9 1017.9 1017.9 0.0
25/11:30am 16.0 13.7 7.5 57 4.3 NNW 9 19 5 10 1018.4 1018.4 0.0
25/11:00am 15.7 13.6 8.4 62 3.7 NNE 9 15 5 8 1018.7 1018.7 0.0
25/10:30am 15.2 14.2 8.7 65 3.3 NE 4 13 2 7 1019.2 1019.2 0.0
25/10:00am 14.6 13.8 9.6 72 2.6 ENE 4 6 2 3 1019.6 1019.6 0.0
25/09:30am 12.5 12.5 9.7 83 1.4 CALM 0 0 0 0 1019.9 1019.9 0.0
25/09:00am 10.4 10.3 9.5 94 0.5 CALM 0 0 0 0 1020.1 1020.1 0.0
25/08:30am 7.7 7.1 7.4 98 0.1 CALM 0 4 0 2 1020.0 1020.0 0.0
25/08:00am 6.0 4.7 5.9 99 0.0 ENE 2 6 1 3 1020.0 1020.0 0.0
25/07:30am 4.4 3.1 4.3 99 0.0 CALM 0 0 0 0 1020.1 1020.1 0.0
25/07:00am 3.6 1.0 3.3 98 0.1 ENE 6 9 3 5 1019.7 1019.7 0.0
25/06:30am 4.1 2.7 3.8 98 0.1 CALM 0 0 0 0 1019.7 1019.7 0.0
25/06:00am 4.4 2.4 4.3 99 0.0 E 4 9 2 5 1019.4 1019.5 0.0
25/05:30am 4.1 2.7 3.8 98 0.1 CALM 0 0 0 0 1019.6 1019.6 0.0
25/05:00am 3.5 2.0 2.9 96 0.2 CALM 0 0 0 0 1019.6 1019.6 0.0
25/04:30am 3.5 1.6 2.9 96 0.2 W 2 7 1 4 1019.6 1019.6 0.0
25/04:00am 3.5 2.0 2.8 95 0.3 CALM 0 0 0 0 1019.6 1019.6 0.0
25/03:30am 3.7 2.2 3.0 95 0.3 CALM 0 0 0 0 1019.6 1019.6 0.0
25/03:00am 3.5 1.9 2.6 94 0.4 CALM 0 0 0 0 1019.7 1019.7 0.0
25/02:30am 3.9 2.4 3.2 95 0.3 CALM 0 0 0 0 1019.9 1019.9 0.0
25/02:00am 3.7 2.1 2.7 93 0.4 CALM 0 0 0 0 1020.1 1020.1 0.0
25/01:30am 4.4 3.0 3.5 94 0.4 CALM 0 0 0 0 1020.2 1020.2 0.0
25/01:00am 4.6 3.2 3.4 92 0.5 CALM 0 0 0 0 1020.5 1020.5 0.0
25/12:30am 5.1 3.7 3.8 91 0.6 CALM 0 0 0 0 1020.8 1020.8 0.0
25/12:00am 5.7 4.5 4.5 92 0.5 CALM 0 0 0 0 1021.0 1021.0 0.0
 
Date/Time
EST
Temp
°C
App
Temp
°C
Dew
Point
Rel
Hum
%
Delta-T
°C
Wind Press
QNH
hPa
Press
MSL
hPa
Rain
since 9 am
mm
Dir
 
Spd
km/h
Gust
km/h
Spd
kts
Gust
kts
24/11:30pm 5.7 4.4 4.2 90 0.6 CALM 0 0 0 0 1021.2 1021.2 0.0
24/11:00pm 6.0 4.7 4.2 88 0.8 CALM 0 0 0 0 1021.3 1021.3 0.0
24/10:30pm 6.2 5.0 4.4 88 0.8 CALM 0 0 0 0 1021.4 1021.4 0.0
24/10:00pm 7.0 5.8 4.5 84 1.1 CALM 0 0 0 0 1021.3 1021.3 0.0
24/09:30pm 8.2 5.9 5.8 85 1.1 NW 7 9 4 5 1021.3 1021.3 0.0
24/09:00pm 7.9 5.0 4.8 81 1.4 WNW 9 9 5 5 1021.6 1021.6 0.0
24/08:30pm 8.5 6.1 5.1 79 1.5 WNW 7 9 4 5 1021.6 1021.6 0.0
24/08:00pm 9.4 7.1 5.6 77 1.7 W 7 9 4 5 1021.6 1021.6 0.0
24/07:30pm 9.8 7.5 5.8 76 1.9 WNW 7 9 4 5 1021.5 1021.5 0.0
24/07:00pm 10.5 8.2 5.5 71 2.3 WNW 7 7 4 4 1021.1 1021.1 0.0
24/06:30pm 10.6 9.5 4.9 68 2.6 CALM 0 6 0 3 1020.9 1020.9 0.0
24/06:00pm 12.8 10.1 5.7 62 3.4 SW 9 9 5 5 1020.8 1020.8 0.0
24/05:30pm 13.7 11.0 5.8 59 3.8 WSW 9 13 5 7 1020.5 1020.5 0.0
24/05:00pm 15.4 11.6 5.9 53 4.6 WSW 15 20 8 11 1020.3 1020.3 0.0
24/04:30pm 16.6 12.1 5.9 49 5.2 SW 19 26 10 14 1020.4 1020.4 0.0
24/04:00pm 16.9 12.1 5.8 48 5.4 SW 20 28 11 15 1020.2 1020.2 0.0
24/03:30pm 17.3 12.3 6.5 49 5.4 WSW 22 30 12 16 1020.2 1020.2 0.0
24/03:00pm 17.3 11.6 6.5 49 5.4 WSW 26 32 14 17 1020.1 1020.1 0.0
24/02:30pm 17.4 12.1 6.9 50 5.3 SW 24 35 13 19 1020.3 1020.3 0.0
24/02:00pm 16.6 11.5 6.1 50 5.1 SW 22 32 12 17 1020.6 1020.6 0.0
24/01:30pm 16.2 10.5 6.6 53 4.8 SSW 26 35 14 19 1020.7 1020.7 0.0
24/01:00pm 16.6 10.9 6.7 52 4.9 SSW 26 35 14 19 1021.3 1021.3 0.0
24/12:30pm 16.6 10.8 6.4 51 5.0 SW 26 39 14 21 1021.8 1021.8 0.0
24/12:00pm 16.4 10.1 7.3 55 4.6 SW 30 39 16 21 1022.3 1022.3 0.0
24/11:30am 16.0 9.5 6.7 54 4.6 SW 30 39 16 21 1022.8 1022.8 0.0
24/11:00am 15.8 9.4 6.8 55 4.4 SW 30 41 16 22 1023.2 1023.2 0.0
24/10:30am 14.4 9.7 7.7 64 3.4 WSW 22 32 12 17 1023.5 1023.5 0.0
24/10:00am 13.5 10.1 7.7 68 2.9 WSW 15 20 8 11 1023.8 1023.9 0.0
24/09:30am 11.9 7.9 6.6 70 2.5 WSW 17 22 9 12 1023.6 1023.6 0.0
24/09:00am 10.9 7.1 5.7 70 2.4 W 15 20 8 11 1023.3 1023.3 0.0
24/08:30am 9.8 6.6 5.2 73 2.1 W 11 15 6 8 1023.1 1023.1 0.0
24/08:00am 8.2 4.1 4.2 76 1.8 W 15 19 8 10 1023.1 1023.1 0.0
24/07:30am 6.5 3.4 3.5 81 1.3 W 9 13 5 7 1022.9 1022.9 0.0
24/07:00am 6.5 2.6 3.3 80 1.4 WNW 13 17 7 9 1022.6 1022.6 0.0
24/06:30am 6.4 2.5 3.2 80 1.4 WNW 13 15 7 8 1022.1 1022.1 0.0
24/06:00am 6.9 3.3 3.2 77 1.6 W 11 15 6 8 1021.8 1021.8 0.0
24/05:30am 6.6 3.4 3.0 78 1.5 WNW 9 11 5 6 1021.7 1021.7 0.0
24/05:00am 6.6 3.4 3.0 78 1.5 WNW 9 13 5 7 1021.7 1021.7 0.0
24/04:30am 6.7 3.5 3.1 78 1.5 WNW 9 11 5 6 1021.8 1021.8 0.0
24/04:00am 6.8 3.7 3.6 80 1.4 WNW 9 11 5 6 1021.9 1021.9 0.0
24/03:30am 6.4 2.8 3.2 80 1.4 WNW 11 13 6 7 1022.1 1022.1 0.0
24/03:00am 7.0 3.9 3.4 78 1.5 NW 9 9 5 5 1022.3 1022.3 0.0
24/02:30am 7.1 3.9 3.3 77 1.6 WNW 9 11 5 6 1022.3 1022.3 0.0
24/02:00am 7.3 3.8 3.5 77 1.6 WNW 11 11 6 6 1022.1 1022.1 0.0
24/01:30am 7.3 3.8 3.7 78 1.6 WNW 11 13 6 7 1022.0 1022.0 0.0
24/01:00am 6.7 3.6 3.7 81 1.3 NW 9 11 5 6 1022.1 1022.1 0.0
24/12:30am 7.2 3.8 3.8 79 1.5 WNW 11 11 6 6 1022.3 1022.3 0.0
24/12:00am 7.2 4.5 3.8 79 1.5 NW 7 9 4 5 1022.7 1022.7 0.0
 
Date/Time
EST
Temp
°C
App
Temp
°C
Dew
Point
Rel
Hum
%
Delta-T
°C
Wind Press
QNH
hPa
Press
MSL
hPa
Rain
since 9 am
mm
Dir
 
Spd
km/h
Gust
km/h
Spd
kts
Gust
kts
23/11:30pm 6.6 3.8 3.0 78 1.5 WNW 7 9 4 5 1022.8 1022.8 0.0
23/11:00pm 6.9 5.1 3.2 77 1.6 W 2 6 1 3 1023.0 1023.0 0.0
23/10:30pm 6.9 4.0 2.4 73 1.9 W 7 7 4 4 1023.1 1023.1 0.0
23/10:00pm 8.0 5.2 3.3 72 2.0 W 7 7 4 4 1023.1 1023.1 0.0
23/09:30pm 8.1 5.3 3.0 70 2.2 W 7 9 4 5 1023.0 1023.0 0.0
23/09:00pm 7.9 4.7 2.8 70 2.2 WSW 9 11 5 6 1022.7 1022.7 0.0
23/08:30pm 10.0 6.4 2.8 61 3.1 SW 11 13 6 7 1022.5 1022.5 0.0
23/08:00pm 10.3 7.1 2.9 60 3.2 SW 9 13 5 7 1022.4 1022.4 0.0
23/07:30pm 11.1 7.5 2.7 56 3.7 SW 11 15 6 8 1022.2 1022.2 0.0
23/07:00pm 11.7 7.4 3.0 55 3.8 SW 15 17 8 9 1022.2 1022.2 0.0
23/06:30pm 12.2 7.9 3.2 54 4.0 SW 15 19 8 10 1021.8 1021.8 0.0
23/06:00pm 13.4 8.6 2.6 48 4.8 SW 17 20 9 11 1021.4 1021.4 0.0
23/05:30pm 14.3 9.1 2.5 45 5.3 SW 19 20 10 11 1020.7 1020.7 0.0
23/05:00pm 15.3 9.5 2.5 42 5.8 SW 22 30 12 16 1020.6 1020.6 0.0
23/04:30pm 16.4 9.8 2.1 38 6.5 SW 26 35 14 19 1020.5 1020.5 0.0
23/04:00pm 17.1 9.1 0.7 33 7.2 SW 32 39 17 21 1020.4 1020.4 0.0
23/03:30pm 17.8 11.0 3.3 38 6.8 SW 28 37 15 20 1020.2 1020.2 0.0
23/03:00pm 18.0 10.2 1.5 33 7.4 SW 32 43 17 23 1020.0 1020.0 0.0
23/02:30pm 18.5 11.7 3.2 36 7.2 SW 28 41 15 22 1019.9 1019.9 0.0
23/02:00pm 18.3 11.2 3.8 38 6.9 SW 30 41 16 22 1020.0 1020.0 0.0
23/01:30pm 18.2 11.1 3.3 37 7.0 SW 30 41 16 22 1020.2 1020.2 0.0
23/01:00pm 17.8 11.0 5.1 43 6.1 SW 30 39 16 21 1020.5 1020.5 0.0
23/12:30pm 17.8 10.6 5.1 43 6.2 SW 32 41 17 22 1020.7 1020.7 0.0
23/12:00pm 17.3 10.7 5.9 47 5.6 SW 30 41 16 22 1021.1 1021.1 0.0
23/11:30am 17.0 8.8 6.5 50 5.2 WSW 39 48 21 26 1021.6 1021.6 0.0
23/11:00am 17.3 11.1 7.9 54 4.8 SW 30 43 16 23 1021.7 1021.7 0.0
23/10:30am 16.3 9.2 5.6 49 5.2 SW 32 43 17 23 1021.7 1021.7 0.0
23/10:00am 16.3 11.4 8.3 59 4.1 SW 24 39 13 21 1021.5 1021.5 0.0
23/09:30am 16.2 11.2 7.9 58 4.2 SW 24 35 13 19 1021.1 1021.1 0.0
23/09:00am 16.4 12.2 8.4 59 4.1 SW 20 35 11 19 1020.9 1020.9 0.0
23/08:30am 16.5 11.9 8.0 57 4.3 SW 22 30 12 16 1020.3 1020.3 0.0
23/08:00am 16.9 13.2 11.6 71 2.9 SW 22 30 12 16 1019.8 1019.8 0.0
23/07:30am 17.6 13.4 11.2 66 3.5 WSW 24 33 13 18 1018.8 1018.8 0.0
23/07:00am 17.0 14.4 11.9 72 2.8 WNW 17 20 9 11 1018.0 1018.0 0.0
23/06:30am 17.3 15.1 12.0 71 2.9 NW 15 19 8 10 1017.5 1017.5 0.0
23/06:00am 17.2 14.7 12.3 73 2.7 NW 17 20 9 11 1017.4 1017.4 0.0
23/05:30am 18.6 15.8 11.4 63 4.0 NW 17 24 9 13 1017.2 1017.2 0.0
23/05:00am 19.1 15.0 11.4 61 4.3 N 24 30 13 16 1016.5 1016.5 0.0
23/04:30am 18.3 14.6 11.6 65 3.7 N 22 30 12 16 1016.6 1016.6 0.0
23/04:00am 18.1 13.8 11.9 67 3.4 N 26 33 14 18 1015.9 1015.9 0.0
23/03:30am 17.9 13.6 11.9 68 3.3 N 26 32 14 17 1016.1 1016.1 0.0
23/03:00am 17.8 13.5 12.0 69 3.2 N 26 32 14 17 1016.5 1016.5 0.0
23/02:30am 18.0 13.8 12.5 70 3.1 N 26 32 14 17 1016.7 1016.7 0.0
23/02:00am 18.2 13.3 12.4 69 3.2 N 30 37 16 20 1016.7 1016.7 0.0
23/01:30am 18.2 13.8 12.9 71 3.0 N 28 35 15 19 1016.9 1016.9 0.0
23/01:00am 15.4 12.5 12.3 82 1.7 NNE 19 22 10 12 1016.9 1016.9 0.0
23/12:30am 16.4 13.5 12.8 79 2.0 N 20 26 11 14 1017.5 1017.5 0.0
23/12:00am 16.5 13.5 12.7 78 2.1 N 20 26 11 14 1017.9 1017.9 0.0
 
Date/Time
EST
Temp
°C
App
Temp
°C
Dew
Point
Rel
Hum
%
Delta-T
°C
Wind Press
QNH
hPa
Press
MSL
hPa
Rain
since 9 am
mm
Dir
 
Spd
km/h
Gust
km/h
Spd
kts
Gust
kts
22/11:30pm 16.8 13.4 12.5 76 2.4 N 22 26 12 14 1018.0 1018.0 0.0
22/11:00pm 16.6 13.6 12.4 76 2.3 N 20 22 11 12 1018.2 1018.2 0.0
22/10:30pm 16.8 14.0 12.5 76 2.4 N 19 20 10 11 1018.3 1018.3 0.0
22/10:00pm 15.8 13.3 12.4 80 1.9 N 17 19 9 10 1018.5 1018.5 0.0
22/09:30pm 15.6 13.4 12.2 80 1.9 N 15 17 8 9 1018.6 1018.6 0.0
22/09:00pm 16.1 13.7 12.5 79 2.0 NNE 17 19 9 10 1018.4 1018.4 0.0
22/08:30pm 16.3 13.8 12.3 77 2.2 NNE 17 19 9 10 1018.5 1018.5 0.0
22/08:00pm 16.6 14.2 12.6 77 2.2 NNE 17 19 9 10 1018.5 1018.5 0.0
22/07:30pm 16.6 14.1 12.2 75 2.4 NNE 17 17 9 9 1018.6 1018.6 0.0
22/07:00pm 16.5 13.8 11.6 73 2.7 NNE 17 17 9 9 1018.6 1018.6 0.0
22/06:30pm 17.7 15.0 11.7 68 3.3 N 17 19 9 10 1018.4 1018.4 0.0
22/06:00pm 18.7 16.3 11.3 62 4.1 N 15 17 8 9 1018.5 1018.5 0.0
22/05:30pm 21.0 18.2 11.3 54 5.4 N 17 20 9 11 1018.4 1018.4 0.0
22/05:00pm 22.7 19.2 10.8 47 6.6 N 20 24 11 13 1018.1 1018.1 0.0
22/04:30pm 24.0 20.1 10.7 43 7.4 N 22 28 12 15 1018.2 1018.2 0.0
22/04:00pm 24.8 21.0 11.0 42 7.8 N 22 26 12 14 1018.2 1018.2 0.0
22/03:30pm 25.1 21.1 10.6 40 8.2 N 22 32 12 17 1018.4 1018.4 0.0
22/03:00pm 25.3 21.2 11.5 42 7.9 N 24 32 13 17 1018.5 1018.5 0.0
22/02:30pm 25.3 21.4 10.7 40 8.2 N 22 30 12 16 1018.6 1018.6 0.0
22/02:00pm 25.0 20.7 11.9 44 7.5 N 26 33 14 18 1019.0 1019.0 0.0
22/01:30pm 25.1 21.0 11.6 42 7.7 NNE 24 35 13 19 1019.3 1019.4 0.0

Other Formats:

Comma delimited format used in spreadsheet applications
http://www.bom.gov.au/fwo/IDN60801/IDN60801.95708.axf

JavaScript Object Notation format (JSON) in row-major order
http://www.bom.gov.au/fwo/IDN60801/IDN60801.95708.json